EJA823 KPWM-KTEB
Flight info
| Callsign | EJA823 |
|---|---|
| Flight time | 0h 56m |
| Altitude | 30000 |
| Route | HSKEL3 HANAA ALB V489 COATE |
| Aircraft | C700/M-SBDGHM1RWXY/LB2 |
Departure
| Time | 2026-05-04 20:24 |
|---|---|
| Airport | Portland International Jetport (KPWM) |
Arrival
| Time | 2026-05-04 21:20 |
|---|---|
| Airport | Teterboro Airport (KTEB) |
| Time | Latitude | Longitude | Altitude | Speed | Heading |
|---|---|---|---|---|---|
| 2026-05-04 20:06 | 43.64976 | -70.30820 | 65 ft | 0 kts | 178° |
| 2026-05-04 20:19 | 43.64960 | -70.30812 | 65 ft | 5 kts | 134° |
| 2026-05-04 20:20 | 43.64957 | -70.30767 | 64 ft | 1 kts | 86° |
| 2026-05-04 20:20 | 43.64953 | -70.30722 | 62 ft | 8 kts | 126° |
| 2026-05-04 20:20 | 43.64890 | -70.30706 | 62 ft | 11 kts | 179° |
| 2026-05-04 20:20 | 43.64800 | -70.30704 | 59 ft | 16 kts | 178° |
| 2026-05-04 20:21 | 43.64702 | -70.30700 | 56 ft | 15 kts | 178° |
| 2026-05-04 20:21 | 43.64617 | -70.30696 | 59 ft | 9 kts | 178° |
| 2026-05-04 20:21 | 43.64558 | -70.30544 | 51 ft | 14 kts | 95° |
| 2026-05-04 20:22 | 43.64557 | -70.30424 | 52 ft | 12 kts | 77° |
| 2026-05-04 20:22 | 43.64584 | -70.30298 | 52 ft | 15 kts | 75° |
| 2026-05-04 20:22 | 43.64581 | -70.30142 | 51 ft | 17 kts | 96° |
| 2026-05-04 20:22 | 43.64571 | -70.30003 | 49 ft | 9 kts | 95° |
| 2026-05-04 20:23 | 43.64552 | -70.29921 | 49 ft | 10 kts | 146° |
| 2026-05-04 20:23 | 43.64472 | -70.29913 | 46 ft | 12 kts | 178° |
| 2026-05-04 20:23 | 43.64412 | -70.29931 | 48 ft | 9 kts | 236° |
| 2026-05-04 20:23 | 43.64409 | -70.29965 | 50 ft | 0 kts | 275° |
| 2026-05-04 20:24 | 43.64421 | -70.30151 | 52 ft | 60 kts | 275° |
| 2026-05-04 20:24 | 43.64493 | -70.31168 | 93 ft | 148 kts | 272° |
| 2026-05-04 20:24 | 43.64559 | -70.32727 | 850 ft | 175 kts | 272° |
| 2026-05-04 20:24 | 43.64642 | -70.34553 | 1683 ft | 194 kts | 274° |
| 2026-05-04 20:25 | 43.64779 | -70.36508 | 1813 ft | 214 kts | 275° |
| 2026-05-04 20:25 | 43.64954 | -70.38512 | 2234 ft | 205 kts | 275° |
| 2026-05-04 20:25 | 43.65158 | -70.40517 | 3011 ft | 229 kts | 275° |
| 2026-05-04 20:25 | 43.65410 | -70.42776 | 3206 ft | 239 kts | 275° |
| 2026-05-04 20:26 | 43.65684 | -70.44968 | 5027 ft | 224 kts | 275° |
| 2026-05-04 20:26 | 43.65951 | -70.47110 | 6835 ft | 229 kts | 276° |
| 2026-05-04 20:26 | 43.66217 | -70.49316 | 8452 ft | 237 kts | 276° |
| 2026-05-04 20:26 | 43.66636 | -70.51566 | 10007 ft | 245 kts | 282° |
| 2026-05-04 20:27 | 43.67104 | -70.53931 | 11301 ft | 268 kts | 282° |
| 2026-05-04 20:27 | 43.67588 | -70.56443 | 12963 ft | 269 kts | 283° |
| 2026-05-04 20:27 | 43.68076 | -70.58939 | 14535 ft | 278 kts | 283° |
| 2026-05-04 20:27 | 43.68591 | -70.61564 | 15984 ft | 286 kts | 284° |
| 2026-05-04 20:28 | 43.69118 | -70.64257 | 17332 ft | 294 kts | 284° |
| 2026-05-04 20:28 | 43.69657 | -70.67020 | 18549 ft | 301 kts | 284° |
| 2026-05-04 20:28 | 43.70210 | -70.69857 | 19586 ft | 309 kts | 284° |
| 2026-05-04 20:28 | 43.70772 | -70.72750 | 20598 ft | 314 kts | 284° |
| 2026-05-04 20:29 | 43.71297 | -70.75700 | 21535 ft | 319 kts | 281° |
| 2026-05-04 20:29 | 43.71522 | -70.78773 | 22460 ft | 324 kts | 274° |
| 2026-05-04 20:29 | 43.71414 | -70.81920 | 23323 ft | 332 kts | 266° |
| 2026-05-04 20:29 | 43.70952 | -70.85085 | 24181 ft | 341 kts | 259° |
| 2026-05-04 20:30 | 43.70136 | -70.88203 | 24993 ft | 349 kts | 253° |
| 2026-05-04 20:30 | 43.69225 | -70.91335 | 25788 ft | 353 kts | 253° |
| 2026-05-04 20:30 | 43.68328 | -70.94475 | 26543 ft | 358 kts | 253° |
| 2026-05-04 20:30 | 43.67404 | -70.97698 | 27271 ft | 363 kts | 253° |
| 2026-05-04 20:31 | 43.66463 | -71.00949 | 28014 ft | 366 kts | 253° |
| 2026-05-04 20:31 | 43.65526 | -71.04238 | 28676 ft | 370 kts | 255° |
| 2026-05-04 20:31 | 43.64840 | -71.07665 | 29329 ft | 371 kts | 261° |
| 2026-05-04 20:31 | 43.64229 | -71.11158 | 29769 ft | 381 kts | 261° |
| 2026-05-04 20:32 | 43.63567 | -71.14803 | 29774 ft | 402 kts | 260° |
| 2026-05-04 20:32 | 43.62869 | -71.18632 | 29787 ft | 420 kts | 260° |
| 2026-05-04 20:32 | 43.62149 | -71.22638 | 29796 ft | 438 kts | 260° |
| 2026-05-04 20:32 | 43.61401 | -71.26795 | 29795 ft | 451 kts | 260° |
| 2026-05-04 20:33 | 43.59858 | -71.35261 | 29795 ft | 456 kts | 260° |
| 2026-05-04 20:33 | 43.58339 | -71.43600 | 29788 ft | 445 kts | 261° |
| 2026-05-04 20:34 | 43.56832 | -71.51857 | 29787 ft | 448 kts | 261° |
| 2026-05-04 20:34 | 43.55291 | -71.60214 | 29790 ft | 450 kts | 261° |
| 2026-05-04 20:35 | 43.53749 | -71.68579 | 29789 ft | 449 kts | 261° |
| 2026-05-04 20:35 | 43.52202 | -71.76907 | 29788 ft | 448 kts | 261° |
| 2026-05-04 20:36 | 43.50655 | -71.85226 | 29787 ft | 448 kts | 261° |
| 2026-05-04 20:36 | 43.49361 | -71.92140 | 29789 ft | 450 kts | 261° |
| 2026-05-04 20:37 | 43.47794 | -72.00491 | 29791 ft | 451 kts | 261° |
| 2026-05-04 20:37 | 43.46210 | -72.08879 | 29789 ft | 453 kts | 261° |
| 2026-05-04 20:38 | 43.44624 | -72.17248 | 29790 ft | 451 kts | 261° |
| 2026-05-04 20:38 | 43.43041 | -72.25574 | 29785 ft | 450 kts | 261° |
| 2026-05-04 20:39 | 43.41445 | -72.33924 | 29789 ft | 452 kts | 261° |
| 2026-05-04 20:39 | 43.39833 | -72.42314 | 29791 ft | 453 kts | 261° |
| 2026-05-04 20:40 | 43.38302 | -72.50632 | 29787 ft | 449 kts | 263° |
| 2026-05-04 20:40 | 43.36952 | -72.59017 | 29789 ft | 450 kts | 262° |
| 2026-05-04 20:41 | 43.35570 | -72.67436 | 29791 ft | 452 kts | 262° |
| 2026-05-04 20:41 | 43.34196 | -72.75823 | 29792 ft | 451 kts | 262° |
| 2026-05-04 20:42 | 43.32808 | -72.84228 | 29789 ft | 451 kts | 262° |
| 2026-05-04 20:42 | 43.31416 | -72.92632 | 29789 ft | 452 kts | 262° |
| 2026-05-04 20:43 | 43.30010 | -73.01067 | 29787 ft | 453 kts | 262° |
| 2026-05-04 20:43 | 43.28599 | -73.09497 | 29787 ft | 453 kts | 262° |
| 2026-05-04 20:44 | 43.27897 | -73.13647 | 29771 ft | 431 kts | 262° |
| 2026-05-04 20:44 | 43.27229 | -73.17555 | 28731 ft | 416 kts | 262° |
| 2026-05-04 20:44 | 43.26589 | -73.21412 | 27449 ft | 411 kts | 262° |
| 2026-05-04 20:44 | 43.25956 | -73.25203 | 26259 ft | 404 kts | 262° |
| 2026-05-04 20:45 | 43.25331 | -73.28869 | 25087 ft | 396 kts | 261° |
| 2026-05-04 20:45 | 43.24706 | -73.32520 | 23967 ft | 390 kts | 261° |
| 2026-05-04 20:45 | 43.24107 | -73.36034 | 23798 ft | 365 kts | 261° |
| 2026-05-04 20:45 | 43.23535 | -73.39395 | 23794 ft | 365 kts | 261° |
| 2026-05-04 20:46 | 43.22949 | -73.42887 | 23797 ft | 386 kts | 261° |
| 2026-05-04 20:46 | 43.22326 | -73.46519 | 23806 ft | 394 kts | 260° |
| 2026-05-04 20:46 | 43.21471 | -73.50095 | 23797 ft | 395 kts | 252° |
| 2026-05-04 20:46 | 43.20255 | -73.53489 | 23787 ft | 397 kts | 245° |
| 2026-05-04 20:47 | 43.18702 | -73.56640 | 23782 ft | 402 kts | 237° |
| 2026-05-04 20:47 | 43.16819 | -73.59500 | 23786 ft | 408 kts | 230° |
| 2026-05-04 20:47 | 43.14623 | -73.62009 | 23787 ft | 414 kts | 221° |
| 2026-05-04 20:47 | 43.12143 | -73.64094 | 23787 ft | 421 kts | 213° |
| 2026-05-04 20:48 | 43.09461 | -73.65668 | 23786 ft | 428 kts | 205° |
| 2026-05-04 20:48 | 43.06607 | -73.66878 | 23787 ft | 430 kts | 202° |
| 2026-05-04 20:48 | 43.03746 | -73.68081 | 23791 ft | 430 kts | 202° |
| 2026-05-04 20:48 | 43.00893 | -73.69297 | 23792 ft | 428 kts | 202° |
| 2026-05-04 20:49 | 42.98052 | -73.70502 | 23798 ft | 426 kts | 202° |
| 2026-05-04 20:49 | 42.95223 | -73.71694 | 23796 ft | 426 kts | 202° |
| 2026-05-04 20:49 | 42.92387 | -73.72889 | 23795 ft | 427 kts | 202° |
| 2026-05-04 20:49 | 42.89545 | -73.74090 | 23797 ft | 428 kts | 202° |
| 2026-05-04 20:50 | 42.86700 | -73.75290 | 23795 ft | 428 kts | 202° |
| 2026-05-04 20:50 | 42.83848 | -73.76487 | 23795 ft | 428 kts | 202° |
| 2026-05-04 20:50 | 42.81000 | -73.77684 | 23798 ft | 427 kts | 202° |
| 2026-05-04 20:50 | 42.78160 | -73.78877 | 23796 ft | 427 kts | 202° |
| 2026-05-04 20:51 | 42.75339 | -73.80114 | 23791 ft | 424 kts | 205° |
| 2026-05-04 20:51 | 42.72692 | -73.81826 | 23805 ft | 418 kts | 214° |
| 2026-05-04 20:51 | 42.70180 | -73.83716 | 23803 ft | 418 kts | 214° |
| 2026-05-04 20:51 | 42.67632 | -73.85611 | 23799 ft | 418 kts | 213° |
| 2026-05-04 20:52 | 42.65081 | -73.87498 | 23797 ft | 417 kts | 213° |
| 2026-05-04 20:52 | 42.62528 | -73.89394 | 23796 ft | 418 kts | 213° |
| 2026-05-04 20:52 | 42.59972 | -73.91298 | 23794 ft | 419 kts | 213° |
| 2026-05-04 20:52 | 42.57409 | -73.93201 | 23800 ft | 420 kts | 213° |
| 2026-05-04 20:53 | 42.54841 | -73.95098 | 23798 ft | 420 kts | 213° |
| 2026-05-04 20:53 | 42.52273 | -73.96998 | 23809 ft | 419 kts | 213° |
| 2026-05-04 20:53 | 42.49715 | -73.98891 | 23811 ft | 417 kts | 213° |
| 2026-05-04 20:53 | 42.47170 | -74.00771 | 23811 ft | 417 kts | 213° |
| 2026-05-04 20:54 | 42.44651 | -74.02633 | 23815 ft | 418 kts | 213° |
| 2026-05-04 20:54 | 42.42091 | -74.04522 | 23812 ft | 422 kts | 213° |
| 2026-05-04 20:54 | 42.39445 | -74.06478 | 23822 ft | 443 kts | 213° |
| 2026-05-04 20:54 | 42.36711 | -74.08490 | 23821 ft | 449 kts | 212° |
| 2026-05-04 20:55 | 42.33974 | -74.10491 | 23823 ft | 446 kts | 212° |
| 2026-05-04 20:55 | 42.31246 | -74.12491 | 23827 ft | 444 kts | 213° |
| 2026-05-04 20:55 | 42.28535 | -74.14487 | 23813 ft | 443 kts | 213° |
| 2026-05-04 20:55 | 42.25828 | -74.16476 | 23821 ft | 443 kts | 213° |
| 2026-05-04 20:56 | 42.23115 | -74.18460 | 23816 ft | 444 kts | 212° |
| 2026-05-04 20:56 | 42.20397 | -74.20446 | 23820 ft | 444 kts | 212° |
| 2026-05-04 20:56 | 42.17678 | -74.22431 | 23776 ft | 445 kts | 212° |
| 2026-05-04 20:56 | 42.14976 | -74.24403 | 23245 ft | 435 kts | 213° |
| 2026-05-04 20:57 | 42.12361 | -74.26303 | 22682 ft | 419 kts | 213° |
| 2026-05-04 20:57 | 42.09865 | -74.28119 | 22141 ft | 406 kts | 213° |
| 2026-05-04 20:57 | 42.07407 | -74.29915 | 21613 ft | 397 kts | 213° |
| 2026-05-04 20:57 | 42.04981 | -74.31687 | 21093 ft | 395 kts | 213° |
| 2026-05-04 20:58 | 42.02554 | -74.33455 | 20568 ft | 398 kts | 213° |
| 2026-05-04 20:58 | 42.00116 | -74.35231 | 20023 ft | 398 kts | 213° |
| 2026-05-04 20:58 | 41.97679 | -74.36986 | 19506 ft | 397 kts | 213° |
| 2026-05-04 20:58 | 41.95252 | -74.38749 | 18974 ft | 394 kts | 213° |
| 2026-05-04 20:59 | 41.92855 | -74.40489 | 18471 ft | 390 kts | 213° |
| 2026-05-04 20:59 | 41.90506 | -74.42187 | 17998 ft | 386 kts | 213° |
| 2026-05-04 20:59 | 41.88151 | -74.43887 | 17557 ft | 382 kts | 213° |
| 2026-05-04 20:59 | 41.85815 | -74.45576 | 17058 ft | 381 kts | 213° |
| 2026-05-04 21:00 | 41.83484 | -74.47260 | 16551 ft | 378 kts | 213° |
| 2026-05-04 21:00 | 41.81182 | -74.48918 | 16051 ft | 373 kts | 213° |
| 2026-05-04 21:00 | 41.78909 | -74.50556 | 15557 ft | 369 kts | 213° |
| 2026-05-04 21:00 | 41.76585 | -74.52012 | 15066 ft | 371 kts | 205° |
| 2026-05-04 21:01 | 41.74089 | -74.52904 | 14572 ft | 372 kts | 195° |
| 2026-05-04 21:01 | 41.71557 | -74.53381 | 14097 ft | 370 kts | 192° |
| 2026-05-04 21:01 | 41.69020 | -74.53854 | 13606 ft | 367 kts | 193° |
| 2026-05-04 21:01 | 41.66498 | -74.54340 | 13116 ft | 360 kts | 193° |
| 2026-05-04 21:02 | 41.64070 | -74.54801 | 12647 ft | 343 kts | 193° |
| 2026-05-04 21:02 | 41.61768 | -74.55229 | 12206 ft | 326 kts | 193° |
| 2026-05-04 21:02 | 41.59575 | -74.55645 | 11775 ft | 311 kts | 194° |
| 2026-05-04 21:02 | 41.57472 | -74.56048 | 11368 ft | 299 kts | 194° |
| 2026-05-04 21:03 | 41.55446 | -74.56432 | 10979 ft | 289 kts | 194° |
| 2026-05-04 21:03 | 41.53473 | -74.56803 | 10604 ft | 283 kts | 193° |
| 2026-05-04 21:03 | 41.51540 | -74.57161 | 10227 ft | 279 kts | 193° |
| 2026-05-04 21:03 | 41.49613 | -74.57529 | 9850 ft | 279 kts | 193° |
| 2026-05-04 21:04 | 41.47719 | -74.57890 | 9494 ft | 279 kts | 193° |
| 2026-05-04 21:04 | 41.45776 | -74.58258 | 9127 ft | 278 kts | 192° |
| 2026-05-04 21:04 | 41.43886 | -74.58610 | 8763 ft | 277 kts | 192° |
| 2026-05-04 21:04 | 41.41988 | -74.58965 | 8382 ft | 273 kts | 192° |
| 2026-05-04 21:05 | 41.40146 | -74.59452 | 8018 ft | 266 kts | 200° |
| 2026-05-04 21:05 | 41.38379 | -74.60156 | 7679 ft | 264 kts | 200° |
| 2026-05-04 21:05 | 41.36602 | -74.60825 | 7322 ft | 265 kts | 200° |
| 2026-05-04 21:05 | 41.34829 | -74.61484 | 6965 ft | 264 kts | 200° |
| 2026-05-04 21:06 | 41.33066 | -74.62150 | 6623 ft | 262 kts | 200° |
| 2026-05-04 21:06 | 41.31314 | -74.62804 | 6284 ft | 261 kts | 199° |
| 2026-05-04 21:06 | 41.29570 | -74.63454 | 6006 ft | 257 kts | 200° |
| 2026-05-04 21:06 | 41.27879 | -74.64075 | 5992 ft | 250 kts | 200° |
| 2026-05-04 21:07 | 41.26218 | -74.64686 | 5994 ft | 253 kts | 199° |
| 2026-05-04 21:07 | 41.24504 | -74.65325 | 6007 ft | 258 kts | 199° |
| 2026-05-04 21:07 | 41.22694 | -74.65481 | 5985 ft | 270 kts | 174° |
| 2026-05-04 21:07 | 41.20981 | -74.64366 | 5988 ft | 283 kts | 144° |
| 2026-05-04 21:08 | 41.19679 | -74.62371 | 5996 ft | 288 kts | 130° |
| 2026-05-04 21:08 | 41.18535 | -74.60186 | 6007 ft | 288 kts | 128° |
| 2026-05-04 21:08 | 41.17429 | -74.57988 | 5960 ft | 282 kts | 128° |
| 2026-05-04 21:08 | 41.16331 | -74.55833 | 5306 ft | 283 kts | 131° |
| 2026-05-04 21:09 | 41.15080 | -74.53833 | 4862 ft | 278 kts | 136° |
| 2026-05-04 21:09 | 41.13793 | -74.51862 | 4560 ft | 293 kts | 134° |
| 2026-05-04 21:09 | 41.12657 | -74.49734 | 4406 ft | 277 kts | 123° |
| 2026-05-04 21:09 | 41.11802 | -74.47445 | 4008 ft | 274 kts | 118° |
| 2026-05-04 21:10 | 41.11053 | -74.45220 | 3998 ft | 255 kts | 118° |
| 2026-05-04 21:10 | 41.10377 | -74.43124 | 3988 ft | 239 kts | 117° |
| 2026-05-04 21:10 | 41.09753 | -74.41147 | 3985 ft | 226 kts | 117° |
| 2026-05-04 21:10 | 41.09155 | -74.39260 | 3985 ft | 220 kts | 117° |
| 2026-05-04 21:11 | 41.08604 | -74.37373 | 3899 ft | 220 kts | 110° |
| 2026-05-04 21:11 | 41.08271 | -74.35411 | 3662 ft | 222 kts | 105° |
| 2026-05-04 21:11 | 41.07987 | -74.33393 | 3451 ft | 222 kts | 104° |
| 2026-05-04 21:11 | 41.07697 | -74.31373 | 3213 ft | 222 kts | 105° |
| 2026-05-04 21:12 | 41.07425 | -74.29377 | 3112 ft | 219 kts | 104° |
| 2026-05-04 21:12 | 41.07163 | -74.27397 | 3006 ft | 215 kts | 104° |
| 2026-05-04 21:12 | 41.06905 | -74.25473 | 3004 ft | 210 kts | 104° |
| 2026-05-04 21:12 | 41.06646 | -74.23541 | 2999 ft | 216 kts | 104° |
| 2026-05-04 21:13 | 41.06373 | -74.21568 | 2997 ft | 219 kts | 105° |
| 2026-05-04 21:13 | 41.06102 | -74.19572 | 3002 ft | 222 kts | 104° |
| 2026-05-04 21:13 | 41.05846 | -74.17568 | 2857 ft | 218 kts | 104° |
| 2026-05-04 21:13 | 41.05581 | -74.15579 | 2495 ft | 217 kts | 104° |
| 2026-05-04 21:14 | 41.05300 | -74.13640 | 2199 ft | 213 kts | 104° |
| 2026-05-04 21:14 | 41.05017 | -74.11782 | 2116 ft | 201 kts | 104° |
| 2026-05-04 21:14 | 41.04745 | -74.09994 | 2099 ft | 196 kts | 104° |
| 2026-05-04 21:14 | 41.04469 | -74.08200 | 2105 ft | 200 kts | 106° |
| 2026-05-04 21:15 | 41.03800 | -74.06602 | 2104 ft | 200 kts | 135° |
| 2026-05-04 21:15 | 41.02849 | -74.05265 | 2107 ft | 199 kts | 138° |
| 2026-05-04 21:15 | 41.01937 | -74.03990 | 2122 ft | 181 kts | 140° |
| 2026-05-04 21:15 | 41.00881 | -74.03369 | 2092 ft | 159 kts | 179° |
| 2026-05-04 21:16 | 40.99801 | -74.03429 | 1865 ft | 155 kts | 193° |
| 2026-05-04 21:16 | 40.98763 | -74.03850 | 1500 ft | 153 kts | 200° |
| 2026-05-04 21:16 | 40.97917 | -74.04231 | 1436 ft | 123 kts | 199° |
| 2026-05-04 21:16 | 40.97127 | -74.04596 | 1474 ft | 117 kts | 199° |
| 2026-05-04 21:17 | 40.96342 | -74.04885 | 1497 ft | 119 kts | 188° |
| 2026-05-04 21:17 | 40.95520 | -74.04995 | 1512 ft | 119 kts | 187° |
| 2026-05-04 21:17 | 40.94695 | -74.05111 | 1504 ft | 117 kts | 188° |
| 2026-05-04 21:17 | 40.93905 | -74.05225 | 1482 ft | 110 kts | 187° |
| 2026-05-04 21:18 | 40.93154 | -74.05316 | 1399 ft | 112 kts | 186° |
| 2026-05-04 21:18 | 40.92344 | -74.05328 | 1378 ft | 119 kts | 182° |
| 2026-05-04 21:18 | 40.91531 | -74.05445 | 1263 ft | 119 kts | 186° |
| 2026-05-04 21:18 | 40.90705 | -74.05508 | 1072 ft | 118 kts | 184° |
| 2026-05-04 21:19 | 40.89899 | -74.05567 | 883 ft | 114 kts | 187° |
| 2026-05-04 21:19 | 40.89104 | -74.05641 | 736 ft | 114 kts | 185° |
| 2026-05-04 21:19 | 40.88308 | -74.05709 | 585 ft | 117 kts | 185° |
| 2026-05-04 21:19 | 40.87479 | -74.05773 | 437 ft | 120 kts | 186° |
| 2026-05-04 21:20 | 40.86677 | -74.05833 | 301 ft | 113 kts | 185° |
| 2026-05-04 21:20 | 40.85880 | -74.05892 | 105 ft | 113 kts | 185° |
| 2026-05-04 21:20 | 40.85132 | -74.05947 | 9 ft | 93 kts | 186° |
| 2026-05-04 21:20 | 40.84663 | -74.05979 | 9 ft | 46 kts | 183° |
| 2026-05-04 21:21 | 40.84429 | -74.05996 | 13 ft | 20 kts | 183° |
| 2026-05-04 21:21 | 40.84350 | -74.06014 | 11 ft | 17 kts | 201° |
| 2026-05-04 21:21 | 40.84273 | -74.06102 | 9 ft | 7 kts | 230° |
| 2026-05-04 21:21 | 40.84280 | -74.06150 | 9 ft | 6 kts | 340° |
| 2026-05-04 21:22 | 40.84338 | -74.06148 | 8 ft | 12 kts | 2° |
| 2026-05-04 21:22 | 40.84452 | -74.06139 | 8 ft | 21 kts | 4° |
| 2026-05-04 21:22 | 40.84580 | -74.06130 | 9 ft | 13 kts | 3° |
| 2026-05-04 21:22 | 40.84649 | -74.06125 | 9 ft | 10 kts | 358° |
| 2026-05-04 21:23 | 40.84702 | -74.06179 | 10 ft | 11 kts | 307° |
| 2026-05-04 21:23 | 40.84755 | -74.06272 | 10 ft | 15 kts | 307° |
| 2026-05-04 21:23 | 40.84822 | -74.06385 | 12 ft | 14 kts | 307° |
| 2026-05-04 21:23 | 40.84873 | -74.06474 | 15 ft | 7 kts | 307° |
| 2026-05-04 21:24 | 40.84863 | -74.06535 | 15 ft | 9 kts | 226° |
| 2026-05-04 21:24 | 40.84810 | -74.06611 | 14 ft | 14 kts | 228° |
| 2026-05-04 21:24 | 40.84758 | -74.06659 | 12 ft | 8 kts | 165° |
| 2026-05-04 21:24 | 40.84712 | -74.06608 | 12 ft | 7 kts | 138° |
| 2026-05-04 21:25 | 40.84679 | -74.06591 | 11 ft | 2 kts | 216° |
| 2026-05-04 21:25 | 40.84677 | -74.06600 | 11 ft | 0 kts | 265° |
| 2026-05-04 21:25 | 40.84675 | -74.06610 | 11 ft | 1 kts | 249° |
| 2026-05-04 21:25 | 40.84668 | -74.06621 | 11 ft | 0 kts | 227° |